Time;durP1;ratioP1;P1;durP2;ratioP2;P2;SDS_P1;SDS_P2;PMS_P1;PMS_P2;Temp;Humidity;BMP_temperature;BMP_pressure;BME280_temperature;BME280_humidity;BME280_pressure;Samples;Min_cycle;Max_cycle;Signal;HPM_P1;HPM_P2
2022/04/19 00:00:35;;;;;;;14.18;11.95;;;;;;;8.44;88.83;101630.69;5112552;28;20050;-31
2022/04/19 00:03:03;;;;;;;14.80;11.18;;;;;;;8.42;88.63;101630.09;5112369;28;20036;-30
2022/04/19 00:05:32;;;;;;;17.08;11.82;;;;;;;8.42;88.95;101630.09;5111705;28;20043;-30
2022/04/19 00:08:00;;;;;;;16.38;12.38;;;;;;;8.40;88.49;101622.03;5111060;28;20400;-27
2022/04/19 00:10:28;;;;;;;15.23;11.60;;;;;;;8.38;89.07;101627.03;5111731;28;20054;-28
2022/04/19 00:12:56;;;;;;;17.02;13.63;;;;;;;8.36;88.77;101620.91;5111504;28;20046;-33
2022/04/19 00:15:27;;;;;;;15.60;11.73;;;;;;;8.36;89.03;101625.63;5112297;28;20138;-27
2022/04/19 00:17:55;;;;;;;12.65;9.50;;;;;;;8.34;89.18;101617.56;5112324;28;20044;-31
2022/04/19 00:20:24;;;;;;;14.77;10.63;;;;;;;8.32;88.99;101614.19;5111237;27;20500;-29
2022/04/19 00:22:52;;;;;;;12.25;9.25;;;;;;;8.31;88.76;101612.47;5111981;28;20040;-29
2022/04/19 00:25:20;;;;;;;14.75;11.57;;;;;;;8.28;88.82;101608.28;5111202;28;20043;-29
2022/04/19 00:27:48;;;;;;;14.27;11.10;;;;;;;8.28;88.77;101613.00;5112092;28;20050;-39
2022/04/19 00:30:16;;;;;;;13.73;10.23;;;;;;;8.27;88.85;101605.78;5110548;28;20043;-30
2022/04/19 00:32:46;;;;;;;11.65;8.93;;;;;;;8.26;88.48;101616.06;5110409;28;20097;-36
2022/04/19 00:35:14;;;;;;;10.88;8.10;;;;;;;8.25;88.54;101610.75;5110586;28;20047;-28
2022/04/19 00:37:41;;;;;;;11.98;9.23;;;;;;;8.23;88.72;101615.75;5112106;28;20044;-25
2022/04/19 00:40:10;;;;;;;13.30;9.57;;;;;;;8.21;88.65;101604.88;5109500;28;20059;-28
2022/04/19 00:42:38;;;;;;;13.88;10.02;;;;;;;8.22;88.79;101608.50;5111824;28;20051;-29
2022/04/19 00:45:07;;;;;;;13.48;10.60;;;;;;;8.20;88.76;101608.75;5111783;28;20070;-29
2022/04/19 00:47:39;;;;;;;12.15;8.95;;;;;;;8.19;89.30;101606.28;5109546;28;20054;-32
2022/04/19 00:50:10;;;;;;;13.50;9.55;;;;;;;8.17;88.85;101603.75;5110465;28;20050;-33
2022/04/19 00:52:40;;;;;;;13.27;10.45;;;;;;;8.14;89.30;101598.72;5110423;28;20050;-36
2022/04/19 00:55:11;;;;;;;14.30;10.43;;;;;;;8.12;89.43;101602.88;5109735;28;20403;-29
2022/04/19 00:57:45;;;;;;;11.75;9.57;;;;;;;8.10;89.70;101599.50;5111456;28;20048;-29
2022/04/19 01:00:16;;;;;;;11.60;9.00;;;;;;;8.07;89.86;101594.47;5111486;28;20208;-33
2022/04/19 01:03:02;;;;;;;13.13;10.23;;;;;;;8.03;89.93;101594.16;5108660;28;20404;-26
2022/04/19 01:05:36;;;;;;;15.60;9.98;;;;;;;8.03;89.70;101593.31;5110647;28;20047;-28
2022/04/19 01:08:07;;;;;;;9.55;7.90;;;;;;;8.01;89.77;101589.97;5109119;28;20101;-29
2022/04/19 01:10:38;;;;;;;10.75;8.38;;;;;;;8.00;89.82;101600.25;5110038;28;20047;-27
2022/04/19 01:13:18;;;;;;;16.50;12.85;;;;;;;7.98;90.00;101598.88;5110158;28;20117;-29
2022/04/19 01:15:53;;;;;;;14.00;11.80;;;;;;;7.96;90.19;101601.91;5104012;28;20052;-29
2022/04/19 01:18:24;;;;;;;14.88;10.95;;;;;;;7.93;90.17;101588.53;5109699;28;20052;-32
2022/04/19 01:21:04;;;;;;;17.55;13.20;;;;;;;7.90;90.70;101595.44;5104403;28;20047;-33
2022/04/19 01:23:34;;;;;;;14.23;11.30;;;;;;;7.89;90.74;101601.25;5109467;28;20050;-31
2022/04/19 01:26:02;;;;;;;13.70;10.80;;;;;;;7.86;90.99;101599.84;5102950;28;20541;-32
2022/04/19 01:28:31;;;;;;;13.27;9.32;;;;;;;7.85;91.02;101598.16;5109917;28;20044;-28
2022/04/19 01:30:59;;;;;;;16.70;13.25;;;;;;;7.86;91.21;101594.28;5110887;28;20400;-29
2022/04/19 01:33:37;;;;;;;18.00;13.88;;;;;;;7.88;91.95;101591.25;5109912;28;20073;-31
2022/04/19 01:36:09;;;;;;;16.23;12.32;;;;;;;7.92;92.79;101586.84;5109394;28;20511;-31
2022/04/19 01:38:42;;;;;;;14.70;11.70;;;;;;;7.95;93.57;101586.31;5109768;28;20131;-31
2022/04/19 01:41:11;;;;;;;19.55;15.07;;;;;;;8.00;94.22;101588.28;5109827;28;20092;-28
2022/04/19 01:43:46;;;;;;;17.13;13.20;;;;;;;8.03;95.03;101582.22;5111801;28;20054;-30
2022/04/19 01:46:16;;;;;;;15.40;12.68;;;;;;;8.05;95.27;101588.34;5113755;28;20082;-30
2022/04/19 01:48:45;;;;;;;17.63;13.95;;;;;;;8.07;96.51;101577.81;5113958;28;20076;-33
2022/04/19 01:51:14;;;;;;;14.82;12.00;;;;;;;8.08;96.92;101587.81;5113168;28;20056;-29
2022/04/19 01:53:43;;;;;;;14.32;11.70;;;;;;;8.07;97.50;101578.63;5113569;28;20048;-32
2022/04/19 01:56:11;;;;;;;15.25;12.25;;;;;;;8.07;97.83;101578.63;5113582;28;20086;-30
2022/04/19 01:58:54;;;;;;;19.45;14.40;;;;;;;8.02;98.31;101584.16;5114312;28;20054;-28
2022/04/19 02:01:44;;;;;;;13.15;10.20;;;;;;;7.97;98.54;101578.56;5113744;28;20055;-31
2022/04/19 02:04:12;;;;;;;12.35;10.10;;;;;;;7.94;98.56;101573.53;5112726;28;20536;-33
2022/04/19 02:06:41;;;;;;;11.38;9.10;;;;;;;7.94;99.11;101579.09;5113427;28;20055;-30
2022/04/19 02:09:11;;;;;;;12.32;10.45;;;;;;;7.94;99.63;101573.53;5113223;28;20400;-33
2022/04/19 02:11:39;;;;;;;14.00;11.35;;;;;;;7.91;99.79;101572.13;5114080;28;20050;-28
2022/04/19 02:14:17;;;;;;;13.07;10.38;;;;;;;7.87;99.98;101579.28;5103664;28;20075;-29
2022/04/19 02:16:45;;;;;;;11.02;8.60;;;;;;;7.85;100.00;101575.09;5113370;28;20044;-33
2022/04/19 02:19:16;;;;;;;12.32;9.23;;;;;;;7.83;100.00;101571.75;5112303;28;20043;-31
2022/04/19 02:21:45;;;;;;;14.75;11.43;;;;;;;7.81;100.00;101573.94;5113324;28;20052;-29
2022/04/19 02:24:14;;;;;;;13.20;9.75;;;;;;;7.77;100.00;101570.03;5114497;28;20044;-31
2022/04/19 02:26:43;;;;;;;9.95;7.95;;;;;;;7.75;100.00;101575.03;5101253;28;20048;-33
2022/04/19 02:29:11;;;;;;;10.48;8.02;;;;;;;7.73;100.00;101580.00;5109286;28;20051;-36
2022/04/19 02:31:45;;;;;;;13.13;10.25;;;;;;;7.70;100.00;101577.75;5113294;28;20401;-28
2022/04/19 02:34:18;;;;;;;12.63;8.93;;;;;;;7.68;100.00;101574.38;5111332;28;20409;-28
2022/04/19 02:36:46;;;;;;;10.48;9.05;;;;;;;7.64;100.00;101584.34;5113228;28;20047;-28
2022/04/19 02:39:16;;;;;;;12.52;10.20;;;;;;;7.62;100.00;101581.81;5111837;28;20044;-25
2022/04/19 02:41:43;;;;;;;12.90;10.00;;;;;;;7.60;100.00;101581.25;5112872;28;20108;-30
2022/04/19 02:44:13;;;;;;;14.10;10.30;;;;;;;7.57;100.00;101584.56;5112661;28;20060;-29
2022/04/19 02:46:47;;;;;;;16.17;12.60;;;;;;;7.53;100.00;101581.47;5111934;28;20105;-31
2022/04/19 02:49:15;;;;;;;12.32;9.55;;;;;;;7.50;100.00;101578.38;5112507;28;20068;-32
2022/04/19 02:51:43;;;;;;;14.02;10.98;;;;;;;7.49;100.00;101573.91;5114005;28;20039;-29
2022/04/19 02:54:11;;;;;;;12.63;9.93;;;;;;;7.46;100.00;101578.03;5113160;27;20134;-30
2022/04/19 02:56:42;;;;;;;12.55;8.77;;;;;;;7.43;100.00;101575.78;5111203;28;20134;-29
2022/04/19 02:59:09;;;;;;;17.38;13.20;;;;;;;7.42;100.00;101573.25;5113911;28;20126;-30
2022/04/19 03:01:37;;;;;;;12.25;9.32;;;;;;;7.38;100.00;101570.19;5112856;27;20468;-31
2022/04/19 03:04:06;;;;;;;15.10;12.32;;;;;;;7.34;100.00;101565.41;5112458;28;20079;-29
2022/04/19 03:06:34;;;;;;;12.13;8.90;;;;;;;7.30;100.00;101567.03;5112441;28;20047;-32
2022/04/19 03:09:01;;;;;;;11.35;8.38;;;;;;;7.26;100.00;101569.47;5112586;28;20047;-32
2022/04/19 03:11:29;;;;;;;12.45;10.05;;;;;;;7.21;100.00;101570.25;5111910;28;20062;-28
2022/04/19 03:14:02;;;;;;;10.38;8.40;;;;;;;7.19;100.00;101569.69;5112104;28;20104;-29
2022/04/19 03:16:30;;;;;;;12.77;8.75;;;;;;;7.15;100.00;101565.78;5112183;28;20043;-30
2022/04/19 03:18:58;;;;;;;10.63;8.68;;;;;;;7.12;100.00;101568.22;5111804;28;20298;-32
2022/04/19 03:21:26;;;;;;;14.07;10.85;;;;;;;7.09;100.00;101558.47;5111257;28;20105;-34
2022/04/19 03:29:26;;;;;;;11.05;8.82;;;;;;;7.03;100.00;101566.97;5111136;28;20058;-24
2022/04/19 03:31:55;;;;;;;10.45;8.50;;;;;;;7.02;100.00;101566.13;5111811;28;20079;-29
2022/04/19 03:34:25;;;;;;;14.40;11.32;;;;;;;7.02;100.00;101568.06;5112880;28;20039;-29
2022/04/19 03:36:53;;;;;;;11.45;8.48;;;;;;;6.99;100.00;101558.34;5098673;28;20050;-29
2022/04/19 03:39:22;;;;;;;9.48;7.70;;;;;;;6.98;100.00;101559.44;5111821;28;20036;-28
2022/04/19 03:41:51;;;;;;;11.13;8.70;;;;;;;6.97;100.00;101557.78;5111338;28;20044;-32
2022/04/19 03:44:18;;;;;;;11.60;9.13;;;;;;;6.97;100.00;101559.72;5099411;28;20465;-31
2022/04/19 03:49:32;;;;;;;8.60;6.88;;;;;;;6.94;100.00;101552.75;5098142;28;20116;-27
2022/04/19 03:52:00;;;;;;;9.10;7.72;;;;;;;6.94;100.00;101563.00;5112505;28;20099;-32
2022/04/19 03:54:28;;;;;;;9.38;7.93;;;;;;;6.91;100.00;101564.34;5111588;28;20150;-25
2022/04/19 03:56:56;;;;;;;8.52;6.93;;;;;;;6.89;100.00;101561.00;5110451;28;20416;-31
2022/04/19 03:59:23;;;;;;;8.68;6.88;;;;;;;6.85;100.00;101563.44;5112499;28;20032;-28
2022/04/19 04:01:53;;;;;;;9.65;6.97;;;;;;;6.82;100.00;101557.56;5111418;28;20056;-26
2022/04/19 04:04:22;;;;;;;9.20;6.93;;;;;;;6.79;100.00;101558.09;5110523;28;20055;-27
2022/04/19 04:06:50;;;;;;;7.53;6.22;;;;;;;6.75;100.00;101559.69;5111104;28;20056;-25
2022/04/19 04:09:17;;;;;;;10.82;8.52;;;;;;;6.71;100.00;101558.53;5110774;28;20105;-28
2022/04/19 04:11:51;;;;;;;9.05;7.30;;;;;;;6.66;100.00;101564.84;5110183;28;20416;-33
2022/04/19 04:14:19;;;;;;;10.80;8.52;;;;;;;6.64;100.00;101558.69;5110967;28;20054;-28
2022/04/19 04:16:47;;;;;;;8.82;7.22;;;;;;;6.61;100.00;101564.75;5111005;28;20177;-31
2022/04/19 04:19:16;;;;;;;8.25;6.45;;;;;;;6.61;100.00;101558.38;5109958;28;20401;-31
2022/04/19 04:21:44;;;;;;;8.70;6.57;;;;;;;6.58;100.00;101562.53;5110715;28;20052;-28
2022/04/19 04:24:11;;;;;;;9.35;6.45;;;;;;;6.56;100.00;101570.25;5110668;28;20039;-28
2022/04/19 04:26:42;;;;;;;7.90;6.80;;;;;;;6.54;100.00;101562.19;5109804;28;20067;-34
2022/04/19 04:29:12;;;;;;;10.23;8.52;;;;;;;6.54;100.00;101564.13;5110714;28;20092;-33
2022/04/19 04:31:41;;;;;;;11.20;7.88;;;;;;;6.53;100.00;101566.06;5109457;28;20051;-32
2022/04/19 04:34:16;;;;;;;10.55;8.73;;;;;;;6.52;100.00;101567.16;5110510;28;20492;-33
2022/04/19 04:36:45;;;;;;;10.10;8.43;;;;;;;6.53;100.00;101571.59;5111820;28;20039;-31
2022/04/19 04:39:17;;;;;;;9.52;7.82;;;;;;;6.51;100.00;101568.22;5109784;28;20048;-32
2022/04/19 04:42:04;;;;;;;9.02;7.28;;;;;;;6.50;100.00;101574.03;5112135;28;20419;-29
2022/04/19 04:44:32;;;;;;;8.05;6.25;;;;;;;6.50;100.00;101580.41;5110402;28;20062;-31
2022/04/19 04:49:47;;;;;;;6.95;5.47;;;;;;;6.48;100.00;101582.59;5110735;28;20047;-27
2022/04/19 04:52:19;;;;;;;8.25;6.30;;;;;;;6.47;100.00;101585.63;5110182;28;20104;-32
2022/04/19 04:54:49;;;;;;;8.48;6.25;;;;;;;6.47;100.00;101585.63;5109588;28;20488;-33
2022/04/19 04:57:23;;;;;;;9.50;7.63;;;;;;;6.47;100.00;101585.63;5110354;28;20077;-33
2022/04/19 04:59:51;;;;;;;10.93;7.97;;;;;;;6.46;100.00;101579.25;5110495;28;20507;-28
2022/04/19 05:02:23;;;;;;;8.48;6.38;;;;;;;6.48;100.00;101579.84;5110283;28;20108;-29
2022/04/19 05:04:53;;;;;;;9.00;7.18;;;;;;;6.50;100.00;101579.59;5111497;28;20504;-29
2022/04/19 05:07:22;;;;;;;9.55;6.82;;;;;;;6.51;100.00;101581.25;5109378;28;20051;-26
2022/04/19 05:09:58;;;;;;;7.70;6.35;;;;;;;6.51;100.00;101576.56;5099142;28;20044;-30
2022/04/19 05:12:27;;;;;;;7.93;6.57;;;;;;;6.54;100.00;101581.59;5109924;28;20044;-30
2022/04/19 05:14:56;;;;;;;7.93;5.88;;;;;;;6.54;100.00;101584.38;5109482;28;20039;-32
2022/04/19 05:17:25;;;;;;;7.47;6.10;;;;;;;6.57;100.00;101583.03;5099178;28;20172;-27
2022/04/19 05:19:55;;;;;;;7.80;5.75;;;;;;;6.59;100.00;101589.16;5110173;28;20462;-31
2022/04/19 05:22:24;;;;;;;7.15;5.93;;;;;;;6.63;100.00;101583.91;5113412;28;20390;-30
2022/04/19 05:24:51;;;;;;;8.32;6.35;;;;;;;6.65;100.00;101582.56;5111765;28;20047;-27
2022/04/19 05:27:19;;;;;;;7.47;5.70;;;;;;;6.68;100.00;101584.00;5113218;28;20039;-31
2022/04/19 05:29:49;;;;;;;7.75;6.35;;;;;;;6.70;100.00;101587.34;5112168;28;20056;-30
2022/04/19 05:32:17;;;;;;;8.60;6.55;;;;;;;6.74;100.00;101588.53;5112019;28;20050;-30
2022/04/19 05:34:47;;;;;;;8.75;6.78;;;;;;;6.80;100.00;101590.25;5113146;28;20047;-30
2022/04/19 05:37:16;;;;;;;9.55;7.07;;;;;;;6.84;100.00;101591.44;5112585;28;20121;-30
2022/04/19 05:39:44;;;;;;;10.10;7.22;;;;;;;6.90;100.00;101590.41;5114027;28;20051;-30
2022/04/19 05:42:12;;;;;;;8.30;6.60;;;;;;;6.95;100.00;101604.34;5111964;28;20054;-26
2022/04/19 05:44:41;;;;;;;9.80;6.82;;;;;;;7.00;100.00;101596.06;5112691;28;20071;-29
2022/04/19 05:47:11;;;;;;;10.25;7.70;;;;;;;7.05;100.00;101598.94;5112420;28;20047;-27
2022/04/19 05:49:40;;;;;;;12.27;8.43;;;;;;;7.13;100.00;101603.19;5111596;28;20066;-26
2022/04/19 05:52:08;;;;;;;11.57;9.00;;;;;;;7.24;100.00;101607.75;5110430;28;20039;-28
2022/04/19 05:54:44;;;;;;;9.60;7.28;;;;;;;7.36;100.00;101608.50;5112652;28;20093;-26
2022/04/19 05:57:14;;;;;;;11.80;8.80;;;;;;;7.49;100.00;101616.41;5111863;28;20043;-31
2022/04/19 05:59:43;;;;;;;10.73;7.63;;;;;;;7.61;100.00;101613.47;5111931;28;20069;-29
2022/04/19 06:04:58;;;;;;;10.52;7.25;;;;;;;7.83;100.00;101617.03;5101363;28;20071;-32
2022/04/19 06:07:30;;;;;;;10.85;8.48;;;;;;;7.94;100.00;101621.63;5112311;28;20058;-34
2022/04/19 06:10:09;;;;;;;11.80;9.07;;;;;;;8.08;100.00;101613.69;5111561;28;20062;-28
2022/04/19 06:12:38;;;;;;;11.88;8.60;;;;;;;8.20;100.00;101616.25;5113553;28;20123;-29
2022/04/19 06:15:08;;;;;;;11.48;8.32;;;;;;;8.34;100.00;101613.94;5112410;28;20052;-30
2022/04/19 06:17:38;;;;;;;12.13;8.15;;;;;;;8.47;100.00;101622.66;5111285;28;20043;-30
2022/04/19 06:20:15;;;;;;;11.57;8.55;;;;;;;8.60;100.00;101624.97;5112013;28;20048;-32
2022/04/19 06:22:44;;;;;;;11.77;8.75;;;;;;;8.73;100.00;101620.91;5111970;28;20448;-29
2022/04/19 06:25:17;;;;;;;13.05;9.65;;;;;;;8.87;100.00;101624.03;5111214;28;20036;-30
2022/04/19 06:27:45;;;;;;;13.05;9.52;;;;;;;8.99;100.00;101625.47;5111879;28;20100;-32
2022/04/19 06:30:15;;;;;;;12.50;9.25;;;;;;;9.15;100.00;101626.44;5110609;28;20056;-27
2022/04/19 06:32:45;;;;;;;11.95;9.07;;;;;;;9.29;100.00;101630.38;5099571;28;20058;-28
2022/04/19 06:35:14;;;;;;;14.10;9.65;;;;;;;9.46;100.00;101629.31;5111456;28;20047;-29
2022/04/19 06:37:42;;;;;;;14.07;9.05;;;;;;;9.62;100.00;101633.84;5111447;28;20048;-32
2022/04/19 06:40:13;;;;;;;12.77;9.57;;;;;;;9.79;100.00;101634.44;5103555;28;20059;-33
2022/04/19 06:42:44;;;;;;;12.98;9.38;;;;;;;10.01;100.00;101636.97;5110348;28;20047;-28
2022/04/19 06:45:16;;;;;;;14.55;9.73;;;;;;;10.24;100.00;101627.28;5110778;28;20047;-29
2022/04/19 06:47:56;;;;;;;13.30;9.93;;;;;;;10.56;100.00;101632.59;5107991;28;20114;-31
2022/04/19 06:50:24;;;;;;;11.43;8.80;;;;;;;10.86;100.00;101635.34;5111272;28;20143;-28
2022/04/19 06:52:54;;;;;;;14.10;10.27;;;;;;;11.23;100.00;101634.94;5108656;28;20051;-36
2022/04/19 06:55:45;;;;;;;13.23;8.95;;;;;;;11.63;100.00;101644.28;5102113;28;20054;-31
2022/04/19 06:58:14;;;;;;;12.55;9.65;;;;;;;12.00;100.00;101636.25;5111019;28;20043;-27
2022/04/19 07:00:42;;;;;;;14.18;10.07;;;;;;;12.36;100.00;101641.63;5110448;28;20073;-29
2022/04/19 07:03:10;;;;;;;12.98;9.90;;;;;;;12.67;100.00;101640.22;5110074;28;20132;-32
2022/04/19 07:06:13;;;;;;;12.85;9.98;;;;;;;12.99;100.00;101648.00;5059356;28;20151;-32
2022/04/19 07:08:41;;;;;;;12.40;8.93;;;;;;;13.25;100.00;101637.38;5098689;28;20044;-29
2022/04/19 07:11:11;;;;;;;13.48;9.48;;;;;;;13.53;99.22;101646.88;5110304;28;20043;-30
2022/04/19 07:13:48;;;;;;;12.60;9.82;;;;;;;13.83;96.64;101645.63;5108518;28;20057;-32
2022/04/19 07:16:45;;;;;;;14.32;9.82;;;;;;;14.08;94.37;101642.44;5099394;28;20459;-32
2022/04/19 07:19:14;;;;;;;10.93;8.93;;;;;;;14.34;91.18;101647.66;5112880;28;20043;-32
2022/04/19 07:27:34;;;;;;;11.73;8.52;;;;;;;15.13;85.93;101648.53;5110281;28;20051;-29
2022/04/19 07:30:06;;;;;;;11.40;8.20;;;;;;;15.52;81.86;101648.88;5111626;28;20506;-30
2022/04/19 07:32:34;;;;;;;10.32;7.80;;;;;;;15.82;79.94;101657.81;5112072;28;20112;-29
2022/04/19 07:35:37;;;;;;;9.32;7.07;;;;;;;16.09;74.69;101652.13;5104926;28;20055;-34
2022/04/19 07:38:05;;;;;;;13.25;9.00;;;;;;;16.28;73.44;101654.78;5111433;28;20100;-31
2022/04/19 07:40:53;;;;;;;8.98;7.15;;;;;;;16.52;70.98;101651.66;5102997;28;20373;-27
2022/04/19 07:43:21;;;;;;;11.25;6.97;;;;;;;16.82;68.90;101653.72;5110669;28;20545;-35
2022/04/19 07:45:50;;;;;;;9.63;7.05;;;;;;;17.16;65.09;101655.09;5111525;28;20101;-31
2022/04/19 07:48:18;;;;;;;8.90;6.90;;;;;;;17.39;61.82;101653.00;5110864;28;20450;-27
2022/04/19 07:50:46;;;;;;;9.48;6.25;;;;;;;17.55;58.90;101646.63;5112214;28;20046;-30
2022/04/19 07:53:14;;;;;;;8.73;6.38;;;;;;;17.76;56.76;101652.50;5111378;28;20050;-32
2022/04/19 07:55:42;;;;;;;9.13;6.47;;;;;;;17.90;53.38;101650.38;5110511;28;20898;-28
2022/04/19 07:58:10;;;;;;;8.98;6.00;;;;;;;18.06;51.86;101652.72;5111425;28;20048;-29
2022/04/19 08:00:38;;;;;;;9.18;6.63;;;;;;;18.17;49.76;101654.91;5109866;28;20511;-34
2022/04/19 08:03:07;;;;;;;9.23;6.10;;;;;;;18.37;47.87;101652.59;5109896;28;20454;-31
2022/04/19 08:05:35;;;;;;;10.60;5.80;;;;;;;18.50;46.62;101652.41;5111958;28;20140;-31
2022/04/19 08:08:03;;;;;;;8.68;5.35;;;;;;;18.48;44.89;101654.72;5111111;28;20540;-30
2022/04/19 08:10:30;;;;;;;8.02;5.47;;;;;;;18.59;44.87;101656.06;5110175;28;20092;-29
2022/04/19 08:12:58;;;;;;;10.52;6.45;;;;;;;18.80;43.74;101652.53;5111122;28;20047;-27
2022/04/19 08:15:26;;;;;;;6.75;5.18;;;;;;;19.13;43.64;101649.97;5110692;28;20043;-32
2022/04/19 08:17:55;;;;;;;8.32;5.55;;;;;;;19.45;42.66;101648.50;5109911;28;20048;-32
2022/04/19 08:20:25;;;;;;;8.07;6.03;;;;;;;19.73;41.48;101654.56;5110928;28;20048;-30
2022/04/19 08:22:53;;;;;;;8.27;6.00;;;;;;;19.87;40.16;101646.66;5111883;28;20050;-33
2022/04/19 08:25:24;;;;;;;8.52;5.78;;;;;;;19.94;40.05;101650.59;5110083;28;20389;-34
2022/04/19 08:27:52;;;;;;;8.48;5.68;;;;;;;20.15;40.00;101649.78;5110073;28;20047;-36
2022/04/19 08:30:21;;;;;;;9.70;6.82;;;;;;;20.54;39.06;101648.50;5110158;28;20144;-36
2022/04/19 08:32:50;;;;;;;10.13;6.75;;;;;;;20.85;37.86;101651.66;5110926;28;20073;-30
2022/04/19 08:35:18;;;;;;;9.10;6.50;;;;;;;21.08;37.05;101648.44;5104328;28;20505;-39
2022/04/19 08:37:47;;;;;;;9.40;6.50;;;;;;;21.03;36.54;101645.81;5110813;28;20083;-36
2022/04/19 08:40:17;;;;;;;8.02;5.97;;;;;;;21.01;37.21;101646.16;5110236;28;20043;-35
2022/04/19 08:42:49;;;;;;;9.27;6.45;;;;;;;21.07;37.13;101650.44;5110194;28;20050;-39
2022/04/19 08:45:19;;;;;;;7.85;5.38;;;;;;;21.31;36.84;101647.69;5110865;28;20512;-33
2022/04/19 08:47:49;;;;;;;8.60;5.82;;;;;;;21.85;37.29;101655.97;5111793;28;20455;-31
2022/04/19 08:50:18;;;;;;;9.10;5.88;;;;;;;22.59;35.86;101656.63;5111321;28;20044;-30
2022/04/19 08:57:29;;;;;;;9.77;6.28;;;;;;;22.93;34.40;101656.06;5110295;28;20081;-33
2022/04/19 08:58:22;;;;;;;7.85;5.72;;;;;;;23.23;33.66;101659.28;5111324;28;20158;-29
2022/04/19 09:00:50;;;;;;;8.90;5.88;;;;;;;23.33;32.92;101655.09;5110552;27;20054;-34
2022/04/19 09:03:20;;;;;;;8.05;5.72;;;;;;;23.16;32.51;101658.28;5111151;28;20118;-30
2022/04/19 09:05:50;;;;;;;7.00;5.32;;;;;;;22.69;32.57;101661.81;5109159;28;20079;-32
2022/04/19 09:08:20;;;;;;;8.80;6.22;;;;;;;22.55;33.27;101653.72;5111243;28;20552;-30
2022/04/19 09:10:50;;;;;;;12.25;7.40;;;;;;;22.88;33.69;101662.00;5111259;28;20396;-27
2022/04/19 09:13:23;;;;;;;8.10;6.18;;;;;;;23.18;32.73;101656.72;5110537;28;20051;-29
2022/04/19 09:15:54;;;;;;;9.52;6.30;;;;;;;22.96;32.39;101655.31;5111367;28;20039;-30
2022/04/19 09:18:25;;;;;;;8.52;5.75;;;;;;;23.01;31.94;101663.56;5111313;28;20077;-33
2022/04/19 09:20:54;;;;;;;10.35;6.30;;;;;;;23.01;31.83;101657.06;5110810;28;20044;-30
2022/04/19 09:23:25;;;;;;;8.80;6.32;;;;;;;22.93;31.20;101661.75;5111006;28;20040;-30
2022/04/19 09:25:54;;;;;;;11.18;5.72;;;;;;;22.75;29.77;101654.69;5111447;28;20047;-32
2022/04/19 09:28:23;;;;;;;11.00;6.10;;;;;;;22.50;31.08;101662.50;5110365;28;20048;-28
2022/04/19 09:30:52;;;;;;;8.73;6.32;;;;;;;22.48;30.94;101652.66;5100121;28;20059;-30
2022/04/19 09:33:21;;;;;;;6.85;5.55;;;;;;;22.69;31.01;101653.28;5108046;28;20051;-34
2022/04/19 09:35:51;;;;;;;8.07;5.40;;;;;;;23.08;30.68;101647.88;5110678;28;20066;-31
2022/04/19 09:38:19;;;;;;;7.80;5.70;;;;;;;23.53;30.53;101656.03;5109631;28;20062;-37
2022/04/19 09:40:49;;;;;;;8.48;6.53;;;;;;;24.02;29.69;101656.41;5111395;28;20107;-32
2022/04/19 09:43:37;;;;;;;6.38;4.97;;;;;;;24.10;28.91;101652.53;5110922;28;20035;-34
2022/04/19 09:46:06;;;;;;;9.35;5.80;;;;;;;24.27;29.21;101646.44;5111327;28;20051;-34
2022/04/19 09:48:36;;;;;;;7.93;5.20;;;;;;;24.67;29.41;101648.09;5109924;28;20067;-30
2022/04/19 09:51:05;;;;;;;7.78;5.28;;;;;;;24.82;27.96;101649.22;5110206;28;20373;-31
2022/04/19 09:53:42;;;;;;;7.93;5.95;;;;;;;24.79;26.89;101647.94;5110857;28;20062;-34
2022/04/19 09:56:13;;;;;;;6.40;4.93;;;;;;;25.06;28.11;101646.88;5109840;28;20047;-32
2022/04/19 09:59:03;;;;;;;7.05;5.10;;;;;;;25.44;27.51;101645.09;5109518;28;20043;-29
2022/04/19 10:09:49;;;;;;;8.48;6.10;;;;;;;24.71;26.24;101663.28;5112802;28;20047;-35
2022/04/19 10:12:20;;;;;;;11.70;6.25;;;;;;;24.71;27.88;101661.25;5114482;28;20036;-29
2022/04/19 10:14:50;;;;;;;7.90;5.43;;;;;;;25.27;27.52;101660.72;5114796;28;20039;-29
2022/04/19 10:17:18;;;;;;;7.28;5.50;;;;;;;25.64;25.94;101668.75;5113752;28;20539;-32
2022/04/19 10:19:49;;;;;;;7.63;5.43;;;;;;;25.48;26.26;101663.16;5114410;28;20047;-31
2022/04/19 10:22:17;;;;;;;6.45;5.00;;;;;;;25.38;25.71;101658.88;5114633;28;20047;-29
2022/04/19 10:24:46;;;;;;;6.72;5.32;;;;;;;25.28;26.89;101656.66;5113348;28;20051;-29
2022/04/19 10:27:14;;;;;;;8.38;6.20;;;;;;;25.59;27.59;101660.47;5114708;28;20115;-31
2022/04/19 10:29:45;;;;;;;8.70;6.80;;;;;;;25.55;28.06;101666.13;5113934;28;20568;-29
2022/04/19 10:32:13;;;;;;;12.73;7.30;;;;;;;25.64;28.65;101665.91;5113760;28;20456;-29
2022/04/19 10:34:44;;;;;;;8.50;7.03;;;;;;;25.74;29.37;101657.50;5114104;28;20043;-29
2022/04/19 10:37:23;;;;;;;9.80;7.47;;;;;;;25.84;29.54;101666.63;5111878;28;20043;-29
2022/04/19 10:39:53;;;;;;;8.55;6.85;;;;;;;25.89;30.19;101654.88;5113794;28;20059;-33
2022/04/19 10:42:29;;;;;;;7.53;6.22;;;;;;;25.89;30.84;101661.41;5113867;28;20545;-30
2022/04/19 10:44:58;;;;;;;6.97;6.20;;;;;;;25.99;30.88;101662.78;5113257;28;20122;-32
2022/04/19 10:47:28;;;;;;;10.02;7.85;;;;;;;26.26;30.41;101661.56;5113709;28;20052;-28
2022/04/19 10:50:03;;;;;;;8.13;7.03;;;;;;;26.59;29.69;101665.69;5113829;28;20105;-30
2022/04/19 10:52:48;;;;;;;7.35;5.93;;;;;;;26.83;30.22;101662.31;5112848;27;20143;-32
2022/04/19 10:55:27;;;;;;;8.18;6.57;;;;;;;26.93;30.44;101672.28;5113849;28;20457;-29
2022/04/19 10:58:12;;;;;;;8.55;6.68;;;;;;;27.10;30.27;101666.75;5112548;28;20369;-30
2022/04/19 11:00:47;;;;;;;6.78;5.35;;;;;;;27.44;29.95;101664.63;5113499;28;20051;-29
2022/04/19 11:03:50;;;;;;;9.32;7.05;;;;;;;27.70;28.63;101660.81;5110793;28;20465;-33
2022/04/19 11:06:33;;;;;;;8.48;7.05;;;;;;;27.64;28.66;101671.00;5112656;28;20472;-29
2022/04/19 11:09:27;;;;;;;11.18;7.18;;;;;;;27.59;28.02;101667.66;5113492;28;20377;-29
2022/04/19 11:12:08;;;;;;;8.65;6.50;;;;;;;27.39;29.04;101659.25;5093957;28;20412;-37
2022/04/19 11:14:40;;;;;;;7.85;6.05;;;;;;;27.20;28.90;101670.13;5112749;28;20484;-30
2022/04/19 11:17:40;;;;;;;8.00;6.43;;;;;;;27.30;27.86;101663.69;5112404;28;20050;-30
2022/04/19 11:20:14;;;;;;;9.52;7.28;;;;;;;26.95;28.25;101670.69;5112612;28;20550;-31
2022/04/19 11:22:46;;;;;;;11.55;7.68;;;;;;;26.56;28.66;101663.63;5113104;28;20139;-33
2022/04/19 11:25:13;;;;;;;9.10;6.97;;;;;;;26.24;28.57;101658.25;5112983;28;20536;-29
2022/04/19 11:28:18;;;;;;;9.23;7.10;;;;;;;26.29;29.05;101657.97;5112566;28;20073;-32
2022/04/19 11:31:10;;;;;;;9.75;7.75;;;;;;;25.95;28.67;101657.03;5113168;27;20075;-29
2022/04/19 11:33:39;;;;;;;7.82;6.35;;;;;;;25.89;29.92;101658.56;5112201;28;20052;-29
2022/04/19 11:36:08;;;;;;;7.93;6.55;;;;;;;26.03;29.73;101660.81;5112815;28;20058;-28
2022/04/19 11:38:40;;;;;;;8.27;6.00;;;;;;;26.19;29.78;101666.34;5113134;28;20059;-31
2022/04/19 11:46:47;;;;;;;7.90;6.78;;;;;;;26.27;29.19;101654.63;5113076;28;20035;-31
2022/04/19 11:49:27;;;;;;;8.05;6.53;;;;;;;26.40;28.24;101652.38;5111910;28;20135;-28
2022/04/19 11:51:57;;;;;;;7.60;5.82;;;;;;;26.39;29.08;101654.41;5106095;28;20055;-28
2022/04/19 11:54:26;;;;;;;9.77;6.65;;;;;;;26.33;28.55;101650.25;5112448;28;20051;-35
2022/04/19 11:56:55;;;;;;;11.27;8.80;;;;;;;26.12;28.15;101646.22;5111862;27;20067;-30
2022/04/19 11:59:29;;;;;;;8.45;6.68;;;;;;;25.66;28.35;101654.91;5112696;28;20043;-33
2022/04/19 12:01:58;;;;;;;9.07;6.45;;;;;;;25.42;29.14;101651.19;5111662;28;20075;-32
2022/04/19 12:04:28;;;;;;;8.00;6.75;;;;;;;25.50;29.23;101652.16;5112409;28;20093;-28
2022/04/19 12:07:00;;;;;;;9.68;7.63;;;;;;;25.48;28.43;101648.03;5112313;28;20396;-32
2022/04/19 12:09:29;;;;;;;11.82;8.00;;;;;;;25.47;28.59;101650.06;5111865;28;20059;-36
2022/04/19 12:12:02;;;;;;;8.95;6.55;;;;;;;25.64;28.82;101658.13;5112327;28;20043;-31
2022/04/19 12:14:32;;;;;;;11.10;7.50;;;;;;;25.72;28.20;101648.50;5112383;28;20131;-35
2022/04/19 12:17:01;;;;;;;10.68;8.05;;;;;;;25.72;27.97;101651.34;5111428;28;20040;-32